Time;durP1;ratioP1;P1;durP2;ratioP2;P2;SDS_P1;SDS_P2;PMS_P1;PMS_P2;Temp;Humidity;BMP_temperature;BMP_pressure;BME280_temperature;BME280_humidity;BME280_pressure;Samples;Min_cycle;Max_cycle;Signal;HPM_P1;HPM_P2
2023/04/11 00:00:19;;;;;;;;;;;;;;;18.42;57.11;100522.20;2232140;78;50846;-72
2023/04/11 00:03:21;;;;;;;;;;;;;;;18.46;56.89;100514.09;2232330;78;50658;-72
2023/04/11 00:06:23;;;;;;;;;;;;;;;18.50;56.82;100507.36;2208150;78;51225;-73
2023/04/11 00:09:24;;;;;;;;;;;;;;;18.47;56.91;100505.06;2200900;79;52699;-74
2023/04/11 00:12:26;;;;;;;;;;;;;;;18.49;56.77;100493.63;2251422;77;50154;-73
2023/04/11 00:15:28;;;;;;;;;;;;;;;18.50;56.74;100499.33;2275861;77;51425;-71
2023/04/11 00:18:30;;;;;;;;;;;;;;;18.55;56.65;100492.08;2255936;77;52594;-72
2023/04/11 00:21:31;;;;;;;;;;;;;;;18.53;56.71;100481.22;2288861;77;50451;-72
2023/04/11 00:24:33;;;;;;;;;;;;;;;18.48;56.84;100470.54;2288591;76;51484;-73
2023/04/11 00:27:34;;;;;;;;;;;;;;;18.47;56.78;100467.55;2256309;77;50701;-72
2023/04/11 00:30:36;;;;;;;;;;;;;;;18.46;56.91;100480.61;2255919;77;51685;-72
2023/04/11 00:33:38;;;;;;;;;;;;;;;18.48;56.81;100479.92;2256372;77;50322;-73
2023/04/11 00:36:40;;;;;;;;;;;;;;;18.53;56.68;100466.48;2288634;77;50392;-73
2023/04/11 00:39:43;;;;;;;;;;;;;;;18.52;56.71;100459.45;2256289;77;52548;-73
2023/04/11 00:42:45;;;;;;;;;;;;;;;18.48;56.80;100445.09;2214776;78;50762;-73
2023/04/11 00:45:47;;;;;;;;;;;;;;;18.46;56.83;100435.06;2194366;80;50966;-74
2023/04/11 00:48:48;;;;;;;;;;;;;;;18.43;56.96;100432.77;2258962;78;51450;-72
2023/04/11 00:51:50;;;;;;;;;;;;;;;18.42;56.92;100425.76;2251467;79;51443;-73
2023/04/11 00:54:51;;;;;;;;;;;;;;;18.39;57.04;100426.11;2253465;78;52364;-74
2023/04/11 00:57:53;;;;;;;;;;;;;;;18.39;57.03;100422.60;2211056;80;50321;-71
2023/04/11 01:00:55;;;;;;;;;;;;;;;18.41;56.95;100420.06;2207536;80;51614;-71
2023/04/11 01:03:59;;;;;;;;;;;;;;;18.46;56.84;100419.50;2227061;79;51505;-72
2023/04/11 01:07:02;;;;;;;;;;;;;;;18.45;56.86;100425.38;2227601;79;22367;-72
2023/04/11 01:10:04;;;;;;;;;;;;;;;18.45;56.72;100414.66;2245869;79;22222;-71
2023/04/11 01:13:06;;;;;;;;;;;;;;;18.44;56.75;100411.64;2254723;77;51637;-72
2023/04/11 01:16:08;;;;;;;;;;;;;;;18.45;56.70;100403.95;2266869;77;51462;-72
2023/04/11 01:19:10;;;;;;;;;;;;;;;18.41;56.88;100394.61;2222474;79;51273;-72
2023/04/11 01:22:13;;;;;;;;;;;;;;;18.39;56.95;100391.80;2254658;79;50265;-71
2023/04/11 01:25:15;;;;;;;;;;;;;;;18.37;56.95;100375.94;2254436;79;51540;-72
2023/04/11 01:28:18;;;;;;;;;;;;;;;18.37;56.98;100361.20;2254640;79;51358;-73
2023/04/11 01:31:19;;;;;;;;;;;;;;;18.37;57.02;100350.97;2253719;77;51578;-72
2023/04/11 01:34:21;;;;;;;;;;;;;;;18.44;56.78;100356.72;2254439;79;49893;-72
2023/04/11 01:37:23;;;;;;;;;;;;;;;18.45;56.74;100355.72;2254638;79;50429;-72
2023/04/11 01:40:24;;;;;;;;;;;;;;;18.46;56.76;100354.69;2254598;79;50411;-72
2023/04/11 01:43:26;;;;;;;;;;;;;;;18.43;56.81;100345.70;2232840;78;51208;-73
2023/04/11 01:46:27;;;;;;;;;;;;;;;18.44;56.70;100333.95;2280117;77;50357;-73
2023/04/11 01:49:29;;;;;;;;;;;;;;;18.42;56.73;100325.30;2259531;77;50382;-73
2023/04/11 01:52:31;;;;;;;;;;;;;;;18.41;56.88;100325.47;2292645;77;51386;-73
2023/04/11 01:55:32;;;;;;;;;;;;;;;18.38;56.94;100315.97;2259282;77;49560;-73
2023/04/11 01:58:35;;;;;;;;;;;;;;;18.37;56.90;100303.61;2292655;77;50269;-72
2023/04/11 02:01:36;;;;;;;;;;;;;;;18.36;57.03;100293.89;2259611;77;51571;-73
2023/04/11 02:04:38;;;;;;;;;;;;;;;18.38;56.92;100298.55;2292273;77;51592;-72
2023/04/11 02:07:40;;;;;;;;;;;;;;;18.41;56.82;100289.31;2234942;77;52335;-73
2023/04/11 02:10:41;;;;;;;;;;;;;;;18.41;56.86;100288.80;2274326;77;51337;-73
2023/04/11 02:13:43;;;;;;;;;;;;;;;18.41;56.86;100279.94;2263062;78;50658;-75
2023/04/11 02:16:51;;;;;;;;;;;;;;;18.43;56.74;100285.94;2206932;80;51528;-71
2023/04/11 02:19:53;;;;;;;;;;;;;;;18.42;56.74;100269.53;2229624;80;51467;-72
2023/04/11 02:22:55;;;;;;;;;;;;;;;18.44;56.70;100267.49;2229633;80;50498;-73
2023/04/11 02:25:56;;;;;;;;;;;;;;;18.43;56.76;100266.67;2229437;80;50447;-72
2023/04/11 02:28:58;;;;;;;;;;;;;;;18.38;56.87;100262.39;2229604;80;52395;-73
2023/04/11 02:32:00;;;;;;;;;;;;;;;18.37;56.86;100250.52;2183631;80;51583;-72
2023/04/11 02:35:01;;;;;;;;;;;;;;;18.39;56.81;100251.98;2206709;80;51456;-73
2023/04/11 02:38:03;;;;;;;;;;;;;;;18.42;56.70;100239.58;2229646;80;51512;-73
2023/04/11 02:41:05;;;;;;;;;;;;;;;18.43;56.66;100237.72;2206933;80;52115;-72
2023/04/11 02:44:07;;;;;;;;;;;;;;;18.42;56.65;100232.88;2204780;78;49648;-74
2023/04/11 02:47:08;;;;;;;;;;;;;;;18.44;56.59;100232.16;2210388;79;50046;-73
2023/04/11 02:50:10;;;;;;;;;;;;;;;18.43;56.64;100225.66;2229597;80;51431;-73
2023/04/11 02:53:12;;;;;;;;;;;;;;;18.43;56.63;100225.15;2206921;80;51401;-73
2023/04/11 02:56:17;;;;;;;;;;;;;;;18.42;56.67;100226.18;2229468;80;50729;-73
2023/04/11 02:59:16;;;;;;;;;;;;;;;18.40;56.73;100222.03;2207295;80;23366;-72
2023/04/11 03:02:18;;;;;;;;;;;;;;;18.39;56.79;100213.66;2206902;80;52190;-74
2023/04/11 03:05:20;;;;;;;;;;;;;;;18.40;56.68;100219.36;2229414;80;51510;-72
2023/04/11 03:08:21;;;;;;;;;;;;;;;18.39;56.79;100219.84;2229437;80;51608;-72
2023/04/11 03:11:23;;;;;;;;;;;;;;;18.40;56.72;100214.83;2219971;79;51140;-73
2023/04/11 03:14:24;;;;;;;;;;;;;;;18.40;56.79;100204.62;2233760;79;50360;-71
2023/04/11 03:17:26;;;;;;;;;;;;;;;18.40;56.64;100203.28;2279863;77;50728;-72
2023/04/11 03:20:28;;;;;;;;;;;;;;;18.42;56.62;100207.91;2292606;77;50481;-72
2023/04/11 03:23:30;;;;;;;;;;;;;;;18.42;56.66;100200.73;2235066;77;52450;-72
2023/04/11 03:26:32;;;;;;;;;;;;;;;18.40;56.64;100188.55;2259706;77;51385;-73
2023/04/11 03:29:34;;;;;;;;;;;;;;;18.37;56.72;100189.77;2292800;77;50344;-72
2023/04/11 03:32:36;;;;;;;;;;;;;;;18.40;56.64;100183.20;2292942;77;50744;-72
2023/04/11 03:35:37;;;;;;;;;;;;;;;18.41;56.53;100187.52;2261847;77;52553;-72
2023/04/11 03:38:39;;;;;;;;;;;;;;;18.40;56.57;100181.86;2292976;77;51611;-73
2023/04/11 03:41:40;;;;;;;;;;;;;;;18.40;56.53;100180.00;2292763;77;50690;-72
2023/04/11 03:44:42;;;;;;;;;;;;;;;18.39;56.65;100178.33;2282895;77;51452;-73
2023/04/11 03:47:44;;;;;;;;;;;;;;;18.39;56.59;100176.98;2225541;79;51747;-73
2023/04/11 03:50:45;;;;;;;;;;;;;;;18.39;56.63;100171.63;2225376;79;52120;-72
2023/04/11 03:53:47;;;;;;;;;;;;;;;18.40;56.52;100163.92;2255937;79;51613;-73
2023/04/11 03:56:48;;;;;;;;;;;;;;;18.38;56.61;100170.50;2256114;79;50648;-73
2023/04/11 03:59:50;;;;;;;;;;;;;;;18.36;56.62;100161.30;2201928;79;51663;-71
2023/04/11 04:02:52;;;;;;;;;;;;;;;18.35;56.68;100161.52;2254748;79;50428;-72
2023/04/11 04:05:53;;;;;;;;;;;;;;;18.37;56.66;100162.98;2254431;79;50217;-72
2023/04/11 04:08:55;;;;;;;;;;;;;;;18.37;56.68;100161.64;2222428;79;50115;-74
2023/04/11 04:11:56;;;;;;;;;;;;;;;18.38;56.62;100161.95;2222358;79;50557;-72
2023/04/11 04:14:58;;;;;;;;;;;;;;;18.40;56.57;100150.53;2272680;77;51548;-73
2023/04/11 04:17:59;;;;;;;;;;;;;;;18.42;56.54;100148.50;2227651;79;50742;-73
2023/04/11 04:21:01;;;;;;;;;;;;;;;18.42;56.49;100142.28;2254535;79;50662;-72
2023/04/11 04:24:04;;;;;;;;;;;;;;;18.40;56.54;100154.55;2222219;79;52504;-72
2023/04/11 04:27:08;;;;;;;;;;;;;;;18.39;56.57;100155.55;2222865;79;51453;-72
2023/04/11 04:30:14;;;;;;;;;;;;;;;18.37;56.59;100161.64;2223377;79;50264;-72
2023/04/11 04:33:17;;;;;;;;;;;;;;;18.38;56.63;100164.62;2222935;79;51416;-71
2023/04/11 04:36:19;;;;;;;;;;;;;;;18.39;56.49;100175.64;2222433;79;52616;-74
2023/04/11 04:39:20;;;;;;;;;;;;;;;18.39;56.63;100171.63;2254606;79;51568;-72
2023/04/11 04:42:28;;;;;;;;;;;;;;;18.39;56.62;100157.41;2254619;79;51428;-71
2023/04/11 04:45:27;;;;;;;;;;;;;;;18.37;56.71;100160.30;2268555;77;22299;-72
2023/04/11 04:48:28;;;;;;;;;;;;;;;18.38;56.61;100153.91;2294908;77;51705;-72
2023/04/11 04:51:30;;;;;;;;;;;;;;;18.40;56.91;100135.80;2300208;77;51510;-73
2023/04/11 04:54:32;;;;;;;;;;;;;;;18.39;57.05;100136.80;2268432;78;50626;-72
2023/04/11 04:57:33;;;;;;;;;;;;;;;18.43;56.95;100138.61;2274977;77;51446;-73
2023/04/11 05:00:35;;;;;;;;;;;;;;;18.44;56.65;100145.61;2275028;77;52481;-72
2023/04/11 05:03:37;;;;;;;;;;;;;;;18.42;57.06;100145.81;2274916;77;50669;-73
2023/04/11 05:06:38;;;;;;;;;;;;;;;18.41;57.00;100137.45;2274316;77;49977;-71
2023/04/11 05:09:40;;;;;;;;;;;;;;;18.43;56.95;100137.27;2268362;78;50219;-73
2023/04/11 05:12:42;;;;;;;;;;;;;;;18.44;58.51;100127.67;2221026;77;51596;-73
2023/04/11 05:15:48;;;;;;;;;;;;;;;18.45;59.36;100123.17;2289900;77;51480;-72
2023/04/11 05:18:49;;;;;;;;;;;;;;;18.44;59.79;100129.53;2262907;77;51542;-72
2023/04/11 05:21:51;;;;;;;;;;;;;;;18.44;58.88;100135.71;2332235;75;50273;-72
2023/04/11 05:24:52;;;;;;;;;;;;;;;18.46;58.38;100120.28;2316874;75;52251;-72
2023/04/11 05:27:54;;;;;;;;;;;;;;;18.45;58.58;100107.92;2322187;75;50279;-73
2023/04/11 05:30:56;;;;;;;;;;;;;;;18.46;58.94;100113.58;2356623;75;51674;-71
2023/04/11 05:33:57;;;;;;;;;;;;;;;18.45;59.00;100117.30;2336494;74;51535;-73
2023/04/11 05:37:00;;;;;;;;;;;;;;;18.43;58.71;100126.03;2299372;76;51748;-71
2023/04/11 05:40:02;;;;;;;;;;;;;;;18.43;59.26;100116.66;2320865;75;51612;-72
2023/04/11 05:43:04;;;;;;;;;;;;;;;18.46;58.32;100124.81;2334326;75;50737;-73
2023/04/11 05:46:06;;;;;;;;;;;;;;;18.45;58.78;100124.51;2316435;75;50742;-74
2023/04/11 05:49:08;;;;;;;;;;;;;;;18.46;58.17;100118.94;2299416;76;52404;-73
2023/04/11 05:52:09;;;;;;;;;;;;;;;18.46;58.19;100116.27;2316868;75;51534;-72
2023/04/11 05:55:11;;;;;;;;;;;;;;;18.45;58.70;100114.62;2299197;76;51497;-72
2023/04/11 05:58:13;;;;;;;;;;;;;;;18.45;59.88;100140.06;2299715;76;50371;-72
2023/04/11 06:01:17;;;;;;;;;;;;;;;18.47;59.19;100132.67;2299321;75;50920;-73
2023/04/11 06:04:18;;;;;;;;;;;;;;;18.49;60.34;100134.62;2299694;77;22304;-72
2023/04/11 06:07:20;;;;;;;;;;;;;;;18.49;61.07;100133.28;2334695;75;51497;-72
2023/04/11 06:10:22;;;;;;;;;;;;;;;18.56;60.57;100133.86;2351810;75;51501;-73
2023/04/11 06:13:24;;;;;;;;;;;;;;;18.63;61.96;100137.41;2278694;75;51236;-72
2023/04/11 06:16:25;;;;;;;;;;;;;;;18.63;61.54;100138.23;2334920;75;50305;-72
2023/04/11 06:19:27;;;;;;;;;;;;;;;18.61;61.02;100135.44;2317840;75;51546;-74
2023/04/11 06:22:28;;;;;;;;;;;;;;;18.57;60.79;100130.14;2290051;77;53546;-73
2023/04/11 06:25:30;;;;;;;;;;;;;;;18.56;60.60;100117.78;2280136;77;52267;-73
2023/04/11 06:28:32;;;;;;;;;;;;;;;18.56;60.11;100105.72;2280413;77;51568;-73
2023/04/11 06:31:33;;;;;;;;;;;;;;;18.57;59.51;100112.73;2309424;77;50234;-74
2023/04/11 06:34:35;;;;;;;;;;;;;;;18.59;59.66;100118.72;2309189;76;51540;-73
2023/04/11 06:37:37;;;;;;;;;;;;;;;18.58;59.08;100121.92;2255607;77;51650;-72
2023/04/11 06:40:38;;;;;;;;;;;;;;;18.56;59.20;100114.58;2280480;77;53469;-74
2023/04/11 06:43:40;;;;;;;;;;;;;;;18.56;59.12;100120.45;2288934;76;51383;-74
2023/04/11 06:46:41;;;;;;;;;;;;;;;18.57;58.97;100109.53;2335300;76;51121;-73
2023/04/11 06:49:43;;;;;;;;;;;;;;;18.54;59.18;100124.66;2317100;76;51430;-73
2023/04/11 06:52:45;;;;;;;;;;;;;;;18.54;59.18;100120.64;2317209;76;51491;-73
2023/04/11 06:55:49;;;;;;;;;;;;;;;18.53;59.33;100118.17;2317069;76;50132;-73
2023/04/11 06:58:51;;;;;;;;;;;;;;;18.52;59.25;100121.86;2347015;76;51560;-74
2023/04/11 07:01:52;;;;;;;;;;;;;;;18.52;59.35;100124.54;2291456;76;49259;-73
2023/04/11 07:04:54;;;;;;;;;;;;;;;18.48;59.18;100130.81;2346825;76;50223;-73
2023/04/11 07:07:56;;;;;;;;;;;;;;;18.50;59.12;100136.29;2347122;76;50267;-73
2023/04/11 07:10:57;;;;;;;;;;;;;;;18.47;59.26;100135.34;2316588;76;50640;-72
2023/04/11 07:13:59;;;;;;;;;;;;;;;18.46;59.24;100130.17;2289718;76;52472;-73
2023/04/11 07:17:01;;;;;;;;;;;;;;;18.43;59.32;100137.27;2306132;76;49990;-73
2023/04/11 07:20:05;;;;;;;;;;;;;;;18.44;59.24;100139.73;2259769;77;50399;-73
2023/04/11 07:23:05;;;;;;;;;;;;;;;18.43;59.15;100139.42;2287886;77;22373;-72
2023/04/11 07:26:10;;;;;;;;;;;;;;;18.44;59.02;100137.05;2287790;77;51606;-72
2023/04/11 07:29:12;;;;;;;;;;;;;;;18.42;59.12;100144.48;2260464;77;50292;-72
2023/04/11 07:32:13;;;;;;;;;;;;;;;18.41;59.02;100141.46;2288052;77;50259;-73
2023/04/11 07:35:15;;;;;;;;;;;;;;;18.41;59.09;100142.80;2259464;77;52482;-73
2023/04/11 07:38:26;;;;;;;;;;;;;;;18.42;59.00;100157.02;2259682;77;51258;-73
2023/04/11 07:41:20;;;;;;;;;;;;;;;18.41;58.99;100152.18;2258615;77;22375;-73
2023/04/11 07:44:22;;;;;;;;;;;;;;;18.40;58.95;100140.34;2307636;76;51527;-74
2023/04/11 07:47:23;;;;;;;;;;;;;;;18.43;58.77;100135.41;2287087;76;51395;-73
2023/04/11 07:50:25;;;;;;;;;;;;;;;18.41;58.76;100134.77;2270097;76;52341;-74
2023/04/11 07:53:26;;;;;;;;;;;;;;;18.38;58.85;100132.48;2295597;76;51495;-75
2023/04/11 07:56:28;;;;;;;;;;;;;;;18.39;58.83;100131.97;2295504;76;51396;-73
2023/04/11 07:59:30;;;;;;;;;;;;;;;18.40;58.81;100133.13;2295594;76;50266;-74
2023/04/11 08:02:32;;;;;;;;;;;;;;;18.40;58.74;100136.31;2270249;76;52364;-73
2023/04/11 08:05:34;;;;;;;;;;;;;;;18.40;58.74;100142.50;2295515;76;50132;-74
2023/04/11 08:08:35;;;;;;;;;;;;;;;18.39;58.78;100141.34;2324733;76;51577;-74
2023/04/11 08:11:38;;;;;;;;;;;;;;;18.39;58.71;100156.89;2325890;76;50768;-73
2023/04/11 08:14:39;;;;;;;;;;;;;;;18.40;58.64;100164.45;2295879;76;51729;-73
2023/04/11 08:17:42;;;;;;;;;;;;;;;18.39;58.61;100158.75;2308350;75;50271;-74
2023/04/11 08:20:44;;;;;;;;;;;;;;;18.40;58.58;100161.25;2297069;77;51521;-73
2023/04/11 08:23:45;;;;;;;;;;;;;;;18.39;58.58;100159.57;2297018;77;51519;-74
2023/04/11 08:26:47;;;;;;;;;;;;;;;18.41;58.48;100159.39;2297099;76;51518;-73
2023/04/11 08:29:49;;;;;;;;;;;;;;;18.39;58.51;100163.59;2297060;77;51319;-72
2023/04/11 08:32:51;;;;;;;;;;;;;;;18.40;58.49;100177.84;2297204;77;51573;-73
2023/04/11 08:35:52;;;;;;;;;;;;;;;18.39;58.39;100175.64;2275517;77;51528;-73
2023/04/11 08:38:55;;;;;;;;;;;;;;;18.41;58.31;100182.98;2297124;77;51490;-73
2023/04/11 08:41:57;;;;;;;;;;;;;;;18.40;58.30;100181.34;2276054;77;50292;-72
2023/04/11 08:44:59;;;;;;;;;;;;;;;18.38;58.37;100191.41;2318677;76;51431;-73
2023/04/11 08:48:01;;;;;;;;;;;;;;;18.37;58.33;100174.19;2297199;77;50294;-73
2023/04/11 08:51:02;;;;;;;;;;;;;;;18.37;58.35;100179.05;2250792;77;51723;-74
2023/04/11 08:54:04;;;;;;;;;;;;;;;18.37;58.29;100179.05;2275680;77;50484;-74
2023/04/11 08:57:06;;;;;;;;;;;;;;;18.35;58.27;100173.05;2276164;77;50133;-72
2023/04/11 09:00:10;;;;;;;;;;;;;;;18.36;58.26;100186.75;2297145;77;50395;-73
2023/04/11 09:03:11;;;;;;;;;;;;;;;18.36;58.21;100188.09;2276329;77;22433;-73
2023/04/11 09:06:13;;;;;;;;;;;;;;;18.40;58.13;100187.21;2275571;77;50279;-73
2023/04/11 09:09:17;;;;;;;;;;;;;;;18.36;58.16;100193.97;2275919;77;51550;-74
2023/04/11 09:12:19;;;;;;;;;;;;;;;18.37;58.13;100188.42;2295489;76;51513;-74
2023/04/11 09:15:25;;;;;;;;;;;;;;;18.35;58.10;100194.48;2287830;76;50719;-74
2023/04/11 09:18:34;;;;;;;;;;;;;;;18.37;58.08;100195.61;2301692;76;50704;-74
2023/04/11 09:21:35;;;;;;;;;;;;;;;18.35;58.14;100186.45;2297338;76;51584;-73
2023/04/11 09:24:37;;;;;;;;;;;;;;;18.39;58.06;100188.22;2301176;77;51324;-73
2023/04/11 09:27:39;;;;;;;;;;;;;;;18.36;58.13;100183.25;2274412;77;52304;-73
2023/04/11 09:30:42;;;;;;;;;;;;;;;18.36;58.13;100192.11;2297217;77;51601;-74
2023/04/11 09:33:53;;;;;;;;;;;;;;;18.36;58.13;100185.41;2297229;77;51444;-74
2023/04/11 09:36:55;;;;;;;;;;;;;;;18.36;58.11;100177.38;2297221;77;50383;-73
2023/04/11 09:39:58;;;;;;;;;;;;;;;18.37;58.17;100173.70;2274392;76;51697;-73
2023/04/11 09:43:01;;;;;;;;;;;;;;;18.36;58.10;100168.00;2301413;77;51619;-73
2023/04/11 09:46:09;;;;;;;;;;;;;;;18.35;58.13;100156.98;2323184;76;51603;-73
2023/04/11 09:49:10;;;;;;;;;;;;;;;18.36;58.17;100166.66;2297112;77;50280;-72
2023/04/11 09:52:12;;;;;;;;;;;;;;;18.35;58.14;100166.36;2264093;76;49789;-73
2023/04/11 09:55:15;;;;;;;;;;;;;;;18.36;58.13;100168.00;2297000;77;50648;-73
2023/04/11 09:58:16;;;;;;;;;;;;;;;18.36;58.15;100171.20;2297290;76;51521;-73
2023/04/11 10:01:19;;;;;;;;;;;;;;;18.37;58.21;100167.48;2297052;77;51442;-73
2023/04/11 10:04:21;;;;;;;;;;;;;;;18.36;58.16;100163.98;2263668;77;52536;-73
2023/04/11 10:07:23;;;;;;;;;;;;;;;18.35;58.18;100167.70;2264254;77;50404;-73
2023/04/11 10:10:24;;;;;;;;;;;;;;;18.37;58.18;100176.37;2297047;76;50463;-73
2023/04/11 10:13:42;;;;;;;;;;;;;;;18.36;58.23;100181.39;2302755;76;50375;-73
2023/04/11 10:17:02;;;;;;;;;;;;;;;18.37;58.16;100171.02;2302934;75;52464;-73
2023/04/11 10:20:05;;;;;;;;;;;;;;;18.38;58.11;100169.98;2297104;77;51371;-73
2023/04/11 10:23:06;;;;;;;;;;;;;;;18.38;58.15;100180.70;2293919;77;50823;-73
2023/04/11 10:26:08;;;;;;;;;;;;;;;18.37;58.14;100168.34;2296984;77;50247;-73
2023/04/11 10:29:33;;;;;;;;;;;;;;;18.39;58.12;100174.31;2275651;77;51153;-73
2023/04/11 10:32:35;;;;;;;;;;;;;;;18.37;58.16;100164.32;2297232;77;51563;-72
2023/04/11 10:35:38;;;;;;;;;;;;;;;18.37;58.19;100166.14;2296910;77;50264;-74
2023/04/11 10:38:46;;;;;;;;;;;;;;;18.37;58.17;100164.32;2294355;77;50297;-72
2023/04/11 10:41:47;;;;;;;;;;;;;;;18.37;58.21;100158.11;2297548;77;22708;-73
2023/04/11 10:44:50;;;;;;;;;;;;;;;18.36;58.18;100154.61;2319921;76;51363;-73
2023/04/11 10:47:53;;;;;;;;;;;;;;;18.37;58.18;100148.73;2305258;75;51446;-73
2023/04/11 10:50:55;;;;;;;;;;;;;;;18.36;58.19;100145.75;2264032;77;53008;-72
2023/04/11 10:53:58;;;;;;;;;;;;;;;18.37;58.17;100140.21;2239221;77;52420;-72
2023/04/11 10:57:00;;;;;;;;;;;;;;;18.36;58.15;100141.22;2264593;77;51557;-72
2023/04/11 11:00:08;;;;;;;;;;;;;;;18.37;58.16;100138.02;2264121;77;51520;-73
2023/04/11 11:03:07;;;;;;;;;;;;;;;18.37;58.14;100139.36;2264161;77;22367;-73
2023/04/11 11:06:09;;;;;;;;;;;;;;;18.36;58.13;100145.23;2295882;76;50818;-73
2023/04/11 11:09:22;;;;;;;;;;;;;;;18.36;58.14;100151.94;2297173;76;50288;-73
2023/04/11 11:12:24;;;;;;;;;;;;;;;18.34;58.13;100163.38;2297242;76;51546;-73
2023/04/11 11:15:28;;;;;;;;;;;;;;;18.33;58.05;100169.73;2291967;76;51541;-75
2023/04/11 11:18:32;;;;;;;;;;;;;;;18.33;58.04;100170.25;2317115;76;50702;-73
2023/04/11 11:21:33;;;;;;;;;;;;;;;18.34;58.00;100175.43;2347291;76;22401;-74
2023/04/11 11:24:35;;;;;;;;;;;;;;;18.35;58.02;100175.73;2317138;76;50005;-72
2023/04/11 11:27:36;;;;;;;;;;;;;;;18.35;58.00;100174.91;2317228;76;50675;-73
2023/04/11 11:30:38;;;;;;;;;;;;;;;18.36;58.01;100172.02;2316947;76;50974;-73
2023/04/11 11:33:44;;;;;;;;;;;;;;;18.35;58.05;100176.25;2317203;76;50623;-73
2023/04/11 11:36:44;;;;;;;;;;;;;;;18.35;58.08;100179.75;2346280;76;22264;-75
2023/04/11 11:39:46;;;;;;;;;;;;;;;18.35;58.07;100171.72;2347552;76;51597;-75
2023/04/11 11:42:48;;;;;;;;;;;;;;;18.36;58.04;100180.05;2317116;76;51226;-75
2023/04/11 11:46:07;;;;;;;;;;;;;;;18.40;57.91;100178.66;2319023;76;50707;-74
2023/04/11 11:49:08;;;;;;;;;;;;;;;18.38;57.96;100189.25;2346877;76;52333;-75
2023/04/11 11:52:10;;;;;;;;;;;;;;;18.39;57.92;100190.38;2317250;76;51457;-75
2023/04/11 11:55:21;;;;;;;;;;;;;;;18.41;57.86;100195.55;2316734;76;51243;-75
2023/04/11 11:58:23;;;;;;;;;;;;;;;18.38;57.96;100197.28;2346902;76;51579;-75
2023/04/11 12:01:24;;;;;;;;;;;;;;;18.40;57.89;100200.09;2346769;76;51587;-73
2023/04/11 12:04:26;;;;;;;;;;;;;;;18.40;57.86;100196.08;2346714;76;51370;-74
2023/04/11 12:07:29;;;;;;;;;;;;;;;18.39;57.90;100205.63;2316851;76;51045;-74
2023/04/11 12:10:32;;;;;;;;;;;;;;;18.37;57.87;100207.17;2346851;76;50856;-73
2023/04/11 12:13:34;;;;;;;;;;;;;;;18.39;57.86;100207.79;2335092;76;51524;-75
2023/04/11 12:16:38;;;;;;;;;;;;;;;18.38;57.83;100214.18;2288551;76;51423;-74
2023/04/11 12:19:41;;;;;;;;;;;;;;;18.40;57.81;100208.12;2299847;76;51735;-75
2023/04/11 12:22:43;;;;;;;;;;;;;;;18.42;57.80;100217.30;2300133;76;51521;-74
2023/04/11 12:25:45;;;;;;;;;;;;;;;18.40;57.78;100217.50;2334237;76;51451;-75
2023/04/11 12:28:47;;;;;;;;;;;;;;;18.41;57.80;100225.84;2334171;76;51430;-74
2023/04/11 12:31:48;;;;;;;;;;;;;;;18.42;57.72;100219.48;2299903;76;52442;-77
2023/04/11 12:34:51;;;;;;;;;;;;;;;18.44;57.73;100220.09;2299962;76;50333;-75
2023/04/11 12:37:53;;;;;;;;;;;;;;;18.45;57.72;100219.09;2300746;76;51603;-75
2023/04/11 12:40:54;;;;;;;;;;;;;;;18.45;57.71;100231.66;2334108;76;51638;-74
2023/04/11 12:43:56;;;;;;;;;;;;;;;18.43;57.76;100233.70;2299896;76;51451;-75
2023/04/11 12:46:57;;;;;;;;;;;;;;;18.43;57.73;100229.16;2291989;76;51499;-74
2023/04/11 12:49:59;;;;;;;;;;;;;;;18.44;57.63;100228.13;2335779;76;51579;-73
2023/04/11 12:53:01;;;;;;;;;;;;;;;18.45;57.65;100234.34;2341042;75;50638;-74
2023/04/11 12:56:02;;;;;;;;;;;;;;;18.46;57.58;100226.61;2340596;75;52329;-73
2023/04/11 12:59:04;;;;;;;;;;;;;;;18.48;57.57;100227.26;2340835;75;50259;-75
2023/04/11 13:02:06;;;;;;;;;;;;;;;18.46;57.58;100236.81;2336446;76;50399;-76
2023/04/11 13:05:09;;;;;;;;;;;;;;;18.48;57.57;100228.08;2340719;75;51542;-75
2023/04/11 13:08:10;;;;;;;;;;;;;;;18.48;57.59;100233.44;2336653;75;50629;-73
2023/04/11 13:11:12;;;;;;;;;;;;;;;18.49;57.59;100242.30;2340938;75;51561;-76
2023/04/11 13:14:14;;;;;;;;;;;;;;;18.46;57.67;100247.53;2340774;75;51496;-73
2023/04/11 13:17:15;;;;;;;;;;;;;;;18.45;57.68;100272.67;2323878;75;51579;-77
2023/04/11 13:20:17;;;;;;;;;;;;;;;18.44;57.70;100285.73;2302890;75;52484;-73
2023/04/11 13:23:19;;;;;;;;;;;;;;;18.43;57.64;100285.42;2300373;76;51448;-74
2023/04/11 13:26:20;;;;;;;;;;;;;;;18.42;57.64;100300.33;2334044;76;51496;-74
2023/04/11 13:29:22;;;;;;;;;;;;;;;18.42;57.61;100302.53;2334243;76;51595;-75
2023/04/11 13:32:23;;;;;;;;;;;;;;;18.42;57.58;100305.69;2274972;76;51641;-74
2023/04/11 13:35:25;;;;;;;;;;;;;;;18.44;57.55;100317.05;2334023;76;51465;-76
2023/04/11 13:38:27;;;;;;;;;;;;;;;18.42;57.56;100327.98;2300132;76;51500;-73
2023/04/11 13:41:28;;;;;;;;;;;;;;;18.44;57.50;100324.58;2300202;76;51728;-75
2023/04/11 13:44:30;;;;;;;;;;;;;;;18.46;57.46;100328.41;2299745;76;50839;-74
2023/04/11 13:47:31;;;;;;;;;;;;;;;18.44;57.49;100336.63;2294897;76;50298;-73
2023/04/11 13:50:33;;;;;;;;;;;;;;;18.45;57.43;100345.00;2281177;77;50364;-74
2023/04/11 13:53:35;;;;;;;;;;;;;;;18.45;57.43;100351.70;2297084;76;51492;-75
2023/04/11 13:56:36;;;;;;;;;;;;;;;18.47;57.36;100364.89;2250736;77;49352;-74
2023/04/11 13:59:38;;;;;;;;;;;;;;;18.48;57.32;100375.95;2297205;77;50416;-73
2023/04/11 14:02:40;;;;;;;;;;;;;;;18.48;57.30;100376.77;2275907;76;50651;-75
2023/04/11 14:05:41;;;;;;;;;;;;;;;18.46;57.32;100389.52;2275821;77;51540;-75
2023/04/11 14:08:43;;;;;;;;;;;;;;;18.46;57.27;100402.09;2250804;77;52276;-73
2023/04/11 14:11:44;;;;;;;;;;;;;;;18.43;57.29;100415.86;2289882;76;50104;-73
2023/04/11 14:14:46;;;;;;;;;;;;;;;18.40;57.25;100417.07;2323278;76;50674;-74
2023/04/11 14:17:48;;;;;;;;;;;;;;;18.40;57.29;100428.30;2313997;76;51449;-74
2023/04/11 14:20:49;;;;;;;;;;;;;;;18.36;57.32;100441.22;2284090;76;52399;-74
2023/04/11 14:23:51;;;;;;;;;;;;;;;18.37;57.31;100435.34;2295455;76;51476;-75
2023/04/11 14:26:52;;;;;;;;;;;;;;;18.36;57.22;100432.36;2324739;76;51496;-74
2023/04/11 14:29:54;;;;;;;;;;;;;;;18.37;57.21;100431.33;2324713;76;51329;-73
2023/04/11 14:32:56;;;;;;;;;;;;;;;18.37;57.19;100405.88;2270446;76;50096;-75
2023/04/11 14:35:57;;;;;;;;;;;;;;;18.35;57.10;100404.75;2295251;76;51497;-75
2023/04/11 14:38:59;;;;;;;;;;;;;;;18.35;57.10;100407.94;2317886;76;51499;-73
2023/04/11 14:42:00;;;;;;;;;;;;;;;18.34;57.06;100391.05;2293786;75;52545;-75
2023/04/11 14:45:02;;;;;;;;;;;;;;;18.35;57.06;100396.71;2272172;76;52502;-74
2023/04/11 14:48:04;;;;;;;;;;;;;;;18.35;57.02;100381.16;2297353;76;50132;-74
2023/04/11 14:51:06;;;;;;;;;;;;;;;18.35;57.10;100394.03;2297433;76;50758;-74
2023/04/11 14:54:07;;;;;;;;;;;;;;;18.34;57.13;100388.37;2271502;76;51001;-76
2023/04/11 14:57:09;;;;;;;;;;;;;;;18.35;57.11;100394.03;2297451;76;51686;-74
2023/04/11 15:00:16;;;;;;;;;;;;;;;18.33;57.17;100391.22;2297400;76;50634;-74
2023/04/11 15:03:14;;;;;;;;;;;;;;;18.32;57.28;100385.04;2297383;75;22409;-74
2023/04/11 15:06:16;;;;;;;;;;;;;;;18.33;57.28;100384.52;2297393;76;50017;-74
2023/04/11 15:09:20;;;;;;;;;;;;;;;18.34;57.30;100383.01;2261264;76;52481;-75
2023/04/11 15:12:22;;;;;;;;;;;;;;;18.34;57.34;100389.70;2280753;76;51510;-75
2023/04/11 15:15:24;;;;;;;;;;;;;;;18.34;57.29;100387.03;2263690;76;50262;-76
2023/04/11 15:18:26;;;;;;;;;;;;;;;18.34;57.37;100387.52;2292962;77;50366;-74
2023/04/11 15:21:28;;;;;;;;;;;;;;;18.40;57.37;100397.49;2311319;76;50248;-74
2023/04/11 15:24:30;;;;;;;;;;;;;;;18.46;57.57;100397.55;2341020;76;52205;-73
2023/04/11 15:27:31;;;;;;;;;;;;;;;18.49;57.75;100384.29;2341090;76;50692;-73
2023/04/11 15:30:33;;;;;;;;;;;;;;;18.49;57.95;100385.12;2341034;76;51636;-73
2023/04/11 15:33:35;;;;;;;;;;;;;;;18.50;57.95;100384.12;2349673;75;49628;-74